sensor_id;sensor_type;location;lat;lon;timestamp;temperature;humidity
25554;DHT22;13446;50.926;5.332;2023-03-31T00:00:09;12.30;99.90
25554;DHT22;13446;50.926;5.332;2023-03-31T00:02:39;12.30;99.90
25554;DHT22;13446;50.926;5.332;2023-03-31T00:05:08;12.30;99.90
25554;DHT22;13446;50.926;5.332;2023-03-31T00:07:34;12.30;99.90
25554;DHT22;13446;50.926;5.332;2023-03-31T00:10:05;12.30;99.90
25554;DHT22;13446;50.926;5.332;2023-03-31T00:12:32;12.30;99.90
25554;DHT22;13446;50.926;5.332;2023-03-31T00:14:58;12.40;99.90
25554;DHT22;13446;50.926;5.332;2023-03-31T00:17:23;12.40;99.90
25554;DHT22;13446;50.926;5.332;2023-03-31T00:19:49;12.50;99.90
25554;DHT22;13446;50.926;5.332;2023-03-31T00:22:15;12.60;99.90
25554;DHT22;13446;50.926;5.332;2023-03-31T00:24:43;12.60;99.90
25554;DHT22;13446;50.926;5.332;2023-03-31T00:27:09;12.60;99.90
25554;DHT22;13446;50.926;5.332;2023-03-31T00:29:35;12.60;99.90
25554;DHT22;13446;50.926;5.332;2023-03-31T00:32:01;12.60;99.90
25554;DHT22;13446;50.926;5.332;2023-03-31T00:34:27;12.60;99.90
25554;DHT22;13446;50.926;5.332;2023-03-31T00:36:52;12.60;99.90
25554;DHT22;13446;50.926;5.332;2023-03-31T00:39:21;12.70;99.90
25554;DHT22;13446;50.926;5.332;2023-03-31T00:41:47;12.70;99.90
25554;DHT22;13446;50.926;5.332;2023-03-31T00:44:17;12.70;99.90
25554;DHT22;13446;50.926;5.332;2023-03-31T00:47:05;12.70;99.90
25554;DHT22;13446;50.926;5.332;2023-03-31T00:52:46;12.80;99.90
25554;DHT22;13446;50.926;5.332;2023-03-31T00:54:46;12.80;99.90
25554;DHT22;13446;50.926;5.332;2023-03-31T00:57:14;12.90;99.90
25554;DHT22;13446;50.926;5.332;2023-03-31T00:59:42;12.90;99.90
25554;DHT22;13446;50.926;5.332;2023-03-31T01:02:11;12.90;99.90
25554;DHT22;13446;50.926;5.332;2023-03-31T01:04:38;12.80;99.90
25554;DHT22;13446;50.926;5.332;2023-03-31T01:07:07;12.70;99.90
25554;DHT22;13446;50.926;5.332;2023-03-31T01:09:34;12.70;99.90
25554;DHT22;13446;50.926;5.332;2023-03-31T01:12:01;12.60;99.90
25554;DHT22;13446;50.926;5.332;2023-03-31T01:14:28;12.70;99.90
25554;DHT22;13446;50.926;5.332;2023-03-31T01:16:53;12.70;99.90
25554;DHT22;13446;50.926;5.332;2023-03-31T01:19:22;12.70;99.90
25554;DHT22;13446;50.926;5.332;2023-03-31T01:29:57;12.80;99.90
25554;DHT22;13446;50.926;5.332;2023-03-31T01:32:36;12.90;99.90
25554;DHT22;13446;50.926;5.332;2023-03-31T01:35:48;12.90;99.90
25554;DHT22;13446;50.926;5.332;2023-03-31T01:45:43;12.60;99.90
25554;DHT22;13446;50.926;5.332;2023-03-31T01:48:12;12.60;99.90
25554;DHT22;13446;50.926;5.332;2023-03-31T01:50:52;12.60;99.90
25554;DHT22;13446;50.926;5.332;2023-03-31T01:55:57;12.40;99.90
25554;DHT22;13446;50.926;5.332;2023-03-31T01:58:25;12.40;99.90
25554;DHT22;13446;50.926;5.332;2023-03-31T02:01:04;12.30;99.90
25554;DHT22;13446;50.926;5.332;2023-03-31T02:03:32;12.30;99.90
25554;DHT22;13446;50.926;5.332;2023-03-31T02:06:02;12.20;99.90
25554;DHT22;13446;50.926;5.332;2023-03-31T02:08:33;12.20;99.90
25554;DHT22;13446;50.926;5.332;2023-03-31T02:11:01;12.20;99.90
25554;DHT22;13446;50.926;5.332;2023-03-31T02:13:27;12.20;99.90
25554;DHT22;13446;50.926;5.332;2023-03-31T02:15:54;12.30;99.90
25554;DHT22;13446;50.926;5.332;2023-03-31T02:18:22;12.20;99.90
25554;DHT22;13446;50.926;5.332;2023-03-31T02:20:50;12.30;99.90
25554;DHT22;13446;50.926;5.332;2023-03-31T02:23:18;12.30;99.90
25554;DHT22;13446;50.926;5.332;2023-03-31T02:25:51;12.30;99.90
25554;DHT22;13446;50.926;5.332;2023-03-31T02:28:19;12.20;99.90
25554;DHT22;13446;50.926;5.332;2023-03-31T02:33:16;12.10;99.90
25554;DHT22;13446;50.926;5.332;2023-03-31T02:35:42;12.20;99.90
25554;DHT22;13446;50.926;5.332;2023-03-31T02:38:07;12.20;99.90
25554;DHT22;13446;50.926;5.332;2023-03-31T02:40:33;12.20;99.90
25554;DHT22;13446;50.926;5.332;2023-03-31T02:42:59;12.20;99.90
25554;DHT22;13446;50.926;5.332;2023-03-31T02:45:41;12.10;99.90
25554;DHT22;13446;50.926;5.332;2023-03-31T02:48:14;12.20;99.90
25554;DHT22;13446;50.926;5.332;2023-03-31T02:50:51;12.10;99.90
25554;DHT22;13446;50.926;5.332;2023-03-31T02:55:56;12.00;99.90
25554;DHT22;13446;50.926;5.332;2023-03-31T03:00:58;11.90;99.90
25554;DHT22;13446;50.926;5.332;2023-03-31T03:08:26;11.90;99.90
25554;DHT22;13446;50.926;5.332;2023-03-31T03:13:59;12.00;99.90
25554;DHT22;13446;50.926;5.332;2023-03-31T03:16:27;11.90;99.90
25554;DHT22;13446;50.926;5.332;2023-03-31T03:19:17;11.90;99.90
25554;DHT22;13446;50.926;5.332;2023-03-31T03:21:43;11.90;99.90
25554;DHT22;13446;50.926;5.332;2023-03-31T03:24:10;11.90;99.90
25554;DHT22;13446;50.926;5.332;2023-03-31T03:26:35;11.90;99.90
25554;DHT22;13446;50.926;5.332;2023-03-31T03:29:01;12.00;99.90
25554;DHT22;13446;50.926;5.332;2023-03-31T03:31:26;11.90;99.90
25554;DHT22;13446;50.926;5.332;2023-03-31T03:33:52;11.90;99.90
25554;DHT22;13446;50.926;5.332;2023-03-31T03:36:17;11.90;99.90
25554;DHT22;13446;50.926;5.332;2023-03-31T03:38:43;11.90;99.90
25554;DHT22;13446;50.926;5.332;2023-03-31T03:41:09;11.90;99.90
25554;DHT22;13446;50.926;5.332;2023-03-31T03:43:35;11.90;99.90
25554;DHT22;13446;50.926;5.332;2023-03-31T03:46:00;11.80;99.90
25554;DHT22;13446;50.926;5.332;2023-03-31T03:48:26;11.80;99.90
25554;DHT22;13446;50.926;5.332;2023-03-31T03:50:51;11.90;99.90
25554;DHT22;13446;50.926;5.332;2023-03-31T03:53:18;12.00;99.90
25554;DHT22;13446;50.926;5.332;2023-03-31T03:55:44;12.20;99.90
25554;DHT22;13446;50.926;5.332;2023-03-31T03:58:13;12.10;99.90
25554;DHT22;13446;50.926;5.332;2023-03-31T04:00:38;12.10;99.90
25554;DHT22;13446;50.926;5.332;2023-03-31T04:03:04;12.20;99.90
25554;DHT22;13446;50.926;5.332;2023-03-31T04:05:30;12.10;99.90
25554;DHT22;13446;50.926;5.332;2023-03-31T04:07:55;12.00;99.90
25554;DHT22;13446;50.926;5.332;2023-03-31T04:10:21;12.00;99.90
25554;DHT22;13446;50.926;5.332;2023-03-31T04:12:47;12.10;99.90
25554;DHT22;13446;50.926;5.332;2023-03-31T04:15:12;12.00;99.90
25554;DHT22;13446;50.926;5.332;2023-03-31T04:17:37;12.00;99.90
25554;DHT22;13446;50.926;5.332;2023-03-31T04:20:06;12.00;99.90
25554;DHT22;13446;50.926;5.332;2023-03-31T04:22:34;11.90;99.90
25554;DHT22;13446;50.926;5.332;2023-03-31T04:25:05;12.00;99.90
25554;DHT22;13446;50.926;5.332;2023-03-31T04:27:41;12.00;99.90
25554;DHT22;13446;50.926;5.332;2023-03-31T04:30:22;12.00;99.90
25554;DHT22;13446;50.926;5.332;2023-03-31T04:32:52;11.90;99.90
25554;DHT22;13446;50.926;5.332;2023-03-31T04:35:22;11.90;99.90
25554;DHT22;13446;50.926;5.332;2023-03-31T04:37:48;11.80;99.90
25554;DHT22;13446;50.926;5.332;2023-03-31T04:40:15;11.90;99.90
25554;DHT22;13446;50.926;5.332;2023-03-31T04:42:41;11.90;99.90
25554;DHT22;13446;50.926;5.332;2023-03-31T04:45:06;11.80;99.90
25554;DHT22;13446;50.926;5.332;2023-03-31T04:47:32;11.70;99.90
25554;DHT22;13446;50.926;5.332;2023-03-31T04:49:58;11.70;99.90
25554;DHT22;13446;50.926;5.332;2023-03-31T04:52:23;11.70;99.90
25554;DHT22;13446;50.926;5.332;2023-03-31T04:54:49;11.70;99.90
25554;DHT22;13446;50.926;5.332;2023-03-31T04:57:14;11.70;99.90
25554;DHT22;13446;50.926;5.332;2023-03-31T04:59:40;11.80;99.90
25554;DHT22;13446;50.926;5.332;2023-03-31T05:02:05;11.80;99.90
25554;DHT22;13446;50.926;5.332;2023-03-31T05:04:31;11.80;99.90
25554;DHT22;13446;50.926;5.332;2023-03-31T05:06:56;11.70;99.90
25554;DHT22;13446;50.926;5.332;2023-03-31T05:09:22;11.80;99.90
25554;DHT22;13446;50.926;5.332;2023-03-31T05:11:48;11.90;99.90
25554;DHT22;13446;50.926;5.332;2023-03-31T05:14:13;11.90;99.90
25554;DHT22;13446;50.926;5.332;2023-03-31T05:16:39;12.00;99.90
25554;DHT22;13446;50.926;5.332;2023-03-31T05:19:06;12.00;99.90
25554;DHT22;13446;50.926;5.332;2023-03-31T05:21:32;12.00;99.90
25554;DHT22;13446;50.926;5.332;2023-03-31T05:23:57;12.00;99.90
25554;DHT22;13446;50.926;5.332;2023-03-31T05:26:23;12.10;99.90
25554;DHT22;13446;50.926;5.332;2023-03-31T05:28:50;12.00;99.90
25554;DHT22;13446;50.926;5.332;2023-03-31T05:31:16;12.00;99.90
25554;DHT22;13446;50.926;5.332;2023-03-31T05:33:41;12.00;99.90
25554;DHT22;13446;50.926;5.332;2023-03-31T05:36:08;12.10;99.90
25554;DHT22;13446;50.926;5.332;2023-03-31T05:38:34;12.20;99.90
25554;DHT22;13446;50.926;5.332;2023-03-31T05:40:59;12.10;99.90
25554;DHT22;13446;50.926;5.332;2023-03-31T05:43:25;12.10;99.90
25554;DHT22;13446;50.926;5.332;2023-03-31T05:45:51;12.10;99.90
25554;DHT22;13446;50.926;5.332;2023-03-31T05:48:16;12.10;99.90
25554;DHT22;13446;50.926;5.332;2023-03-31T05:50:42;12.20;99.90
25554;DHT22;13446;50.926;5.332;2023-03-31T05:53:08;12.20;99.90
25554;DHT22;13446;50.926;5.332;2023-03-31T05:55:36;12.20;99.90
25554;DHT22;13446;50.926;5.332;2023-03-31T05:58:02;12.30;99.90
25554;DHT22;13446;50.926;5.332;2023-03-31T06:00:27;12.20;99.90
25554;DHT22;13446;50.926;5.332;2023-03-31T06:02:53;12.10;99.90
25554;DHT22;13446;50.926;5.332;2023-03-31T06:05:19;12.00;99.90
25554;DHT22;13446;50.926;5.332;2023-03-31T06:07:44;12.00;99.90
25554;DHT22;13446;50.926;5.332;2023-03-31T06:10:10;11.90;99.90
25554;DHT22;13446;50.926;5.332;2023-03-31T06:12:35;12.00;99.90
25554;DHT22;13446;50.926;5.332;2023-03-31T06:15:01;12.00;99.90
25554;DHT22;13446;50.926;5.332;2023-03-31T06:17:27;12.10;99.90
25554;DHT22;13446;50.926;5.332;2023-03-31T06:19:52;12.10;99.90
25554;DHT22;13446;50.926;5.332;2023-03-31T06:22:18;12.00;99.90
25554;DHT22;13446;50.926;5.332;2023-03-31T06:24:44;12.00;99.90
25554;DHT22;13446;50.926;5.332;2023-03-31T06:27:09;12.10;99.90
25554;DHT22;13446;50.926;5.332;2023-03-31T06:29:35;12.20;99.90
25554;DHT22;13446;50.926;5.332;2023-03-31T06:32:00;12.20;99.90
25554;DHT22;13446;50.926;5.332;2023-03-31T06:34:26;12.30;99.90
25554;DHT22;13446;50.926;5.332;2023-03-31T06:36:52;12.40;99.90
25554;DHT22;13446;50.926;5.332;2023-03-31T06:39:17;12.40;99.90
25554;DHT22;13446;50.926;5.332;2023-03-31T06:41:43;12.50;99.90
25554;DHT22;13446;50.926;5.332;2023-03-31T06:44:09;12.50;99.90
25554;DHT22;13446;50.926;5.332;2023-03-31T06:46:34;12.60;99.90
25554;DHT22;13446;50.926;5.332;2023-03-31T06:49:00;12.50;99.90
25554;DHT22;13446;50.926;5.332;2023-03-31T06:51:26;12.50;99.90
25554;DHT22;13446;50.926;5.332;2023-03-31T06:53:51;12.60;99.90
25554;DHT22;13446;50.926;5.332;2023-03-31T06:56:17;12.60;99.90
25554;DHT22;13446;50.926;5.332;2023-03-31T06:58:42;12.80;99.90
25554;DHT22;13446;50.926;5.332;2023-03-31T07:01:08;12.80;99.90
25554;DHT22;13446;50.926;5.332;2023-03-31T07:03:35;12.90;99.90
25554;DHT22;13446;50.926;5.332;2023-03-31T07:06:01;12.80;99.90
25554;DHT22;13446;50.926;5.332;2023-03-31T07:08:26;12.70;99.90
25554;DHT22;13446;50.926;5.332;2023-03-31T07:10:54;12.80;99.90
25554;DHT22;13446;50.926;5.332;2023-03-31T07:13:22;13.00;99.90
25554;DHT22;13446;50.926;5.332;2023-03-31T07:15:47;13.00;99.90
25554;DHT22;13446;50.926;5.332;2023-03-31T07:18:13;13.10;99.90
25554;DHT22;13446;50.926;5.332;2023-03-31T07:20:40;13.20;99.90
25554;DHT22;13446;50.926;5.332;2023-03-31T07:23:06;13.40;99.90
25554;DHT22;13446;50.926;5.332;2023-03-31T07:25:33;13.50;99.90
25554;DHT22;13446;50.926;5.332;2023-03-31T07:27:58;13.40;99.90
25554;DHT22;13446;50.926;5.332;2023-03-31T07:30:24;13.40;99.90
25554;DHT22;13446;50.926;5.332;2023-03-31T07:32:50;13.50;99.90
25554;DHT22;13446;50.926;5.332;2023-03-31T07:35:16;13.70;99.90
25554;DHT22;13446;50.926;5.332;2023-03-31T07:37:43;13.80;99.90
25554;DHT22;13446;50.926;5.332;2023-03-31T07:40:11;13.90;99.90
25554;DHT22;13446;50.926;5.332;2023-03-31T07:42:36;14.00;99.90
25554;DHT22;13446;50.926;5.332;2023-03-31T07:45:02;13.90;99.90
25554;DHT22;13446;50.926;5.332;2023-03-31T07:47:30;14.00;99.90
25554;DHT22;13446;50.926;5.332;2023-03-31T07:49:56;14.00;99.90
25554;DHT22;13446;50.926;5.332;2023-03-31T07:52:21;14.20;99.90
25554;DHT22;13446;50.926;5.332;2023-03-31T07:54:47;14.50;99.90
25554;DHT22;13446;50.926;5.332;2023-03-31T07:57:13;14.90;99.90
25554;DHT22;13446;50.926;5.332;2023-03-31T07:59:40;14.90;99.90
25554;DHT22;13446;50.926;5.332;2023-03-31T08:02:06;15.00;99.90
25554;DHT22;13446;50.926;5.332;2023-03-31T08:04:32;14.90;99.90
25554;DHT22;13446;50.926;5.332;2023-03-31T08:06:57;14.90;99.90
25554;DHT22;13446;50.926;5.332;2023-03-31T08:09:23;14.80;99.90
25554;DHT22;13446;50.926;5.332;2023-03-31T08:11:49;14.70;99.90
25554;DHT22;13446;50.926;5.332;2023-03-31T08:14:15;14.80;99.90
25554;DHT22;13446;50.926;5.332;2023-03-31T08:16:40;14.90;99.90
25554;DHT22;13446;50.926;5.332;2023-03-31T08:19:06;15.00;99.90
25554;DHT22;13446;50.926;5.332;2023-03-31T08:21:31;15.00;99.90
25554;DHT22;13446;50.926;5.332;2023-03-31T08:23:57;15.00;99.90
25554;DHT22;13446;50.926;5.332;2023-03-31T08:26:23;14.80;99.90
25554;DHT22;13446;50.926;5.332;2023-03-31T08:28:50;14.90;99.90
25554;DHT22;13446;50.926;5.332;2023-03-31T08:31:18;14.80;99.90
25554;DHT22;13446;50.926;5.332;2023-03-31T08:33:44;14.90;99.90
25554;DHT22;13446;50.926;5.332;2023-03-31T08:36:10;14.90;99.90
25554;DHT22;13446;50.926;5.332;2023-03-31T08:38:36;14.90;99.90
25554;DHT22;13446;50.926;5.332;2023-03-31T08:41:04;14.90;99.90
25554;DHT22;13446;50.926;5.332;2023-03-31T08:43:32;14.80;99.90
25554;DHT22;13446;50.926;5.332;2023-03-31T08:45:59;14.90;99.90
25554;DHT22;13446;50.926;5.332;2023-03-31T08:48:27;14.90;99.90
25554;DHT22;13446;50.926;5.332;2023-03-31T08:50:59;15.00;99.90
25554;DHT22;13446;50.926;5.332;2023-03-31T08:56:27;15.50;99.90
25554;DHT22;13446;50.926;5.332;2023-03-31T08:58:53;15.70;99.90
25554;DHT22;13446;50.926;5.332;2023-03-31T09:06:35;15.80;99.90
25554;DHT22;13446;50.926;5.332;2023-03-31T09:09:03;15.60;99.90
25554;DHT22;13446;50.926;5.332;2023-03-31T09:11:49;15.60;99.90
25554;DHT22;13446;50.926;5.332;2023-03-31T09:16:53;16.00;99.90
25554;DHT22;13446;50.926;5.332;2023-03-31T09:21:52;15.70;99.90
25554;DHT22;13446;50.926;5.332;2023-03-31T09:24:22;15.80;99.90
25554;DHT22;13446;50.926;5.332;2023-03-31T09:29:18;15.70;99.90
25554;DHT22;13446;50.926;5.332;2023-03-31T09:31:45;15.60;99.90
25554;DHT22;13446;50.926;5.332;2023-03-31T09:34:13;15.40;99.90
25554;DHT22;13446;50.926;5.332;2023-03-31T09:36:38;15.50;99.90
25554;DHT22;13446;50.926;5.332;2023-03-31T09:39:04;15.40;99.90
25554;DHT22;13446;50.926;5.332;2023-03-31T09:41:30;15.50;99.90
25554;DHT22;13446;50.926;5.332;2023-03-31T09:43:56;15.30;99.90
25554;DHT22;13446;50.926;5.332;2023-03-31T09:46:32;15.00;99.90
25554;DHT22;13446;50.926;5.332;2023-03-31T09:49:00;14.80;99.90
25554;DHT22;13446;50.926;5.332;2023-03-31T09:51:28;14.80;99.90
25554;DHT22;13446;50.926;5.332;2023-03-31T09:56:46;14.90;99.90
25554;DHT22;13446;50.926;5.332;2023-03-31T09:59:14;15.00;99.90
25554;DHT22;13446;50.926;5.332;2023-03-31T10:01:41;14.90;99.90
25554;DHT22;13446;50.926;5.332;2023-03-31T10:04:11;15.00;99.90
25554;DHT22;13446;50.926;5.332;2023-03-31T10:06:41;15.10;99.90
25554;DHT22;13446;50.926;5.332;2023-03-31T10:09:06;15.10;99.90
25554;DHT22;13446;50.926;5.332;2023-03-31T10:11:34;15.20;99.90
25554;DHT22;13446;50.926;5.332;2023-03-31T10:14:06;15.20;99.90
25554;DHT22;13446;50.926;5.332;2023-03-31T10:19:18;15.40;99.90
25554;DHT22;13446;50.926;5.332;2023-03-31T10:21:45;15.70;99.90
25554;DHT22;13446;50.926;5.332;2023-03-31T10:24:11;15.90;99.90
25554;DHT22;13446;50.926;5.332;2023-03-31T10:26:36;16.20;99.90
25554;DHT22;13446;50.926;5.332;2023-03-31T10:29:09;16.50;99.90
25554;DHT22;13446;50.926;5.332;2023-03-31T10:31:35;16.70;99.90
25554;DHT22;13446;50.926;5.332;2023-03-31T10:34:05;17.20;99.90
25554;DHT22;13446;50.926;5.332;2023-03-31T10:36:32;17.30;99.90
25554;DHT22;13446;50.926;5.332;2023-03-31T10:38:59;18.00;99.90
25554;DHT22;13446;50.926;5.332;2023-03-31T10:41:29;18.10;99.90
25554;DHT22;13446;50.926;5.332;2023-03-31T10:43:59;17.90;99.90
25554;DHT22;13446;50.926;5.332;2023-03-31T10:46:41;17.00;99.90
25554;DHT22;13446;50.926;5.332;2023-03-31T10:49:29;16.50;99.90
25554;DHT22;13446;50.926;5.332;2023-03-31T10:51:55;16.10;99.90
25554;DHT22;13446;50.926;5.332;2023-03-31T10:54:20;15.80;99.90
25554;DHT22;13446;50.926;5.332;2023-03-31T10:56:47;15.60;99.90
25554;DHT22;13446;50.926;5.332;2023-03-31T11:04:27;15.80;99.90
25554;DHT22;13446;50.926;5.332;2023-03-31T11:12:26;16.10;99.90
25554;DHT22;13446;50.926;5.332;2023-03-31T11:22:44;16.70;99.90
25554;DHT22;13446;50.926;5.332;2023-03-31T11:25:22;16.80;99.90
25554;DHT22;13446;50.926;5.332;2023-03-31T11:45:37;17.10;99.90
25554;DHT22;13446;50.926;5.332;2023-03-31T11:48:06;17.30;99.90
25554;DHT22;13446;50.926;5.332;2023-03-31T11:50:35;17.30;99.90
25554;DHT22;13446;50.926;5.332;2023-03-31T11:53:12;17.60;99.90
25554;DHT22;13446;50.926;5.332;2023-03-31T11:55:40;17.50;99.90
25554;DHT22;13446;50.926;5.332;2023-03-31T11:58:08;17.40;99.90
25554;DHT22;13446;50.926;5.332;2023-03-31T12:00:37;17.50;99.90
25554;DHT22;13446;50.926;5.332;2023-03-31T12:03:06;17.40;99.90
25554;DHT22;13446;50.926;5.332;2023-03-31T12:05:36;17.60;99.90
25554;DHT22;13446;50.926;5.332;2023-03-31T12:08:10;17.50;99.90
25554;DHT22;13446;50.926;5.332;2023-03-31T12:10:39;17.60;99.90
25554;DHT22;13446;50.926;5.332;2023-03-31T12:13:22;17.60;99.90
25554;DHT22;13446;50.926;5.332;2023-03-31T12:15:57;17.50;99.90
25554;DHT22;13446;50.926;5.332;2023-03-31T12:18:25;17.60;99.90
25554;DHT22;13446;50.926;5.332;2023-03-31T12:20:57;17.60;99.90
25554;DHT22;13446;50.926;5.332;2023-03-31T12:23:28;17.30;99.90
25554;DHT22;13446;50.926;5.332;2023-03-31T12:26:04;17.20;99.90
25554;DHT22;13446;50.926;5.332;2023-03-31T12:28:33;17.00;99.90
25554;DHT22;13446;50.926;5.332;2023-03-31T12:30:59;16.70;99.90
25554;DHT22;13446;50.926;5.332;2023-03-31T12:33:27;16.50;99.90
25554;DHT22;13446;50.926;5.332;2023-03-31T12:38:32;16.80;99.90
25554;DHT22;13446;50.926;5.332;2023-03-31T12:56:23;16.90;99.90
25554;DHT22;13446;50.926;5.332;2023-03-31T12:58:48;16.70;99.90
25554;DHT22;13446;50.926;5.332;2023-03-31T13:01:18;16.80;99.90
25554;DHT22;13446;50.926;5.332;2023-03-31T13:08:51;16.00;99.90
25554;DHT22;13446;50.926;5.332;2023-03-31T13:11:18;15.60;99.90
25554;DHT22;13446;50.926;5.332;2023-03-31T13:13:45;15.40;99.90
25554;DHT22;13446;50.926;5.332;2023-03-31T13:16:20;15.10;99.90
25554;DHT22;13446;50.926;5.332;2023-03-31T13:18:49;15.10;99.90
25554;DHT22;13446;50.926;5.332;2023-03-31T13:21:15;15.00;99.90
25554;DHT22;13446;50.926;5.332;2023-03-31T13:23:42;14.90;99.90
25554;DHT22;13446;50.926;5.332;2023-03-31T13:34:17;14.70;99.90
25554;DHT22;13446;50.926;5.332;2023-03-31T13:36:47;14.70;99.90
25554;DHT22;13446;50.926;5.332;2023-03-31T13:52:25;15.30;99.90
25554;DHT22;13446;50.926;5.332;2023-03-31T14:00:07;15.00;99.90
25554;DHT22;13446;50.926;5.332;2023-03-31T14:05:19;14.80;99.90
25554;DHT22;13446;50.926;5.332;2023-03-31T14:07:58;14.80;99.90
25554;DHT22;13446;50.926;5.332;2023-03-31T14:10:28;14.80;99.90
25554;DHT22;13446;50.926;5.332;2023-03-31T14:13:04;14.80;99.90
25554;DHT22;13446;50.926;5.332;2023-03-31T14:15:29;15.00;99.90
25554;DHT22;13446;50.926;5.332;2023-03-31T14:17:55;14.90;99.90
25554;DHT22;13446;50.926;5.332;2023-03-31T14:25:52;14.80;99.90
25554;DHT22;13446;50.926;5.332;2023-03-31T14:33:30;14.90;99.90
25554;DHT22;13446;50.926;5.332;2023-03-31T14:36:01;14.70;99.90
25554;DHT22;13446;50.926;5.332;2023-03-31T14:38:29;14.90;99.90
25554;DHT22;13446;50.926;5.332;2023-03-31T14:40:56;15.10;99.90
25554;DHT22;13446;50.926;5.332;2023-03-31T14:46:00;15.10;99.90
25554;DHT22;13446;50.926;5.332;2023-03-31T14:48:26;15.10;99.90
25554;DHT22;13446;50.926;5.332;2023-03-31T14:50:55;15.10;99.90
25554;DHT22;13446;50.926;5.332;2023-03-31T14:53:22;15.10;99.90
25554;DHT22;13446;50.926;5.332;2023-03-31T14:55:48;15.10;99.90
25554;DHT22;13446;50.926;5.332;2023-03-31T14:58:25;15.10;99.90
25554;DHT22;13446;50.926;5.332;2023-03-31T15:00:51;15.00;99.90
25554;DHT22;13446;50.926;5.332;2023-03-31T15:03:17;14.80;99.90
25554;DHT22;13446;50.926;5.332;2023-03-31T15:05:43;14.70;99.90
25554;DHT22;13446;50.926;5.332;2023-03-31T15:08:15;14.80;99.90
25554;DHT22;13446;50.926;5.332;2023-03-31T15:10:42;14.60;99.90
25554;DHT22;13446;50.926;5.332;2023-03-31T15:13:18;14.60;99.90
25554;DHT22;13446;50.926;5.332;2023-03-31T15:15:44;14.50;99.90
25554;DHT22;13446;50.926;5.332;2023-03-31T15:18:11;14.40;99.90
25554;DHT22;13446;50.926;5.332;2023-03-31T15:20:39;14.40;99.90
25554;DHT22;13446;50.926;5.332;2023-03-31T15:23:17;14.30;99.90
25554;DHT22;13446;50.926;5.332;2023-03-31T15:25:45;14.20;99.90
25554;DHT22;13446;50.926;5.332;2023-03-31T15:28:12;14.20;99.90
25554;DHT22;13446;50.926;5.332;2023-03-31T15:30:38;14.30;99.90
25554;DHT22;13446;50.926;5.332;2023-03-31T15:33:07;14.30;99.90
25554;DHT22;13446;50.926;5.332;2023-03-31T15:35:33;14.20;99.90
25554;DHT22;13446;50.926;5.332;2023-03-31T15:38:01;14.10;99.90
25554;DHT22;13446;50.926;5.332;2023-03-31T15:40:29;14.10;99.90
25554;DHT22;13446;50.926;5.332;2023-03-31T15:43:02;14.00;99.90
25554;DHT22;13446;50.926;5.332;2023-03-31T15:46:03;13.90;99.90
25554;DHT22;13446;50.926;5.332;2023-03-31T15:48:29;13.90;99.90
25554;DHT22;13446;50.926;5.332;2023-03-31T15:51:02;13.70;99.90
25554;DHT22;13446;50.926;5.332;2023-03-31T15:53:30;13.60;99.90
25554;DHT22;13446;50.926;5.332;2023-03-31T15:55:57;13.70;99.90
25554;DHT22;13446;50.926;5.332;2023-03-31T15:58:44;13.50;99.90
25554;DHT22;13446;50.926;5.332;2023-03-31T16:01:10;13.60;99.90
25554;DHT22;13446;50.926;5.332;2023-03-31T16:03:40;13.70;99.90
25554;DHT22;13446;50.926;5.332;2023-03-31T16:09:02;13.80;99.90
25554;DHT22;13446;50.926;5.332;2023-03-31T16:11:41;13.80;99.90
25554;DHT22;13446;50.926;5.332;2023-03-31T16:14:13;13.70;99.90
25554;DHT22;13446;50.926;5.332;2023-03-31T16:16:44;13.60;99.90
25554;DHT22;13446;50.926;5.332;2023-03-31T16:19:10;13.50;99.90
25554;DHT22;13446;50.926;5.332;2023-03-31T16:21:37;13.60;99.90
25554;DHT22;13446;50.926;5.332;2023-03-31T16:24:04;13.70;99.90
25554;DHT22;13446;50.926;5.332;2023-03-31T16:26:30;13.60;99.90
25554;DHT22;13446;50.926;5.332;2023-03-31T16:28:56;13.60;99.90
25554;DHT22;13446;50.926;5.332;2023-03-31T16:33:55;13.50;99.90
25554;DHT22;13446;50.926;5.332;2023-03-31T16:36:21;13.50;99.90
25554;DHT22;13446;50.926;5.332;2023-03-31T16:38:47;13.50;99.90
25554;DHT22;13446;50.926;5.332;2023-03-31T16:41:15;13.20;99.90
25554;DHT22;13446;50.926;5.332;2023-03-31T16:43:43;13.30;99.90
25554;DHT22;13446;50.926;5.332;2023-03-31T16:46:09;13.20;99.90
25554;DHT22;13446;50.926;5.332;2023-03-31T16:48:35;13.10;99.90
25554;DHT22;13446;50.926;5.332;2023-03-31T16:51:01;13.20;99.90
25554;DHT22;13446;50.926;5.332;2023-03-31T16:53:28;13.20;99.90
25554;DHT22;13446;50.926;5.332;2023-03-31T16:55:54;13.20;99.90
25554;DHT22;13446;50.926;5.332;2023-03-31T16:58:20;13.10;99.90
25554;DHT22;13446;50.926;5.332;2023-03-31T17:00:45;13.10;99.90
25554;DHT22;13446;50.926;5.332;2023-03-31T17:03:12;13.20;99.90
25554;DHT22;13446;50.926;5.332;2023-03-31T17:05:39;13.30;99.90
25554;DHT22;13446;50.926;5.332;2023-03-31T17:08:05;13.30;99.90
25554;DHT22;13446;50.926;5.332;2023-03-31T17:10:33;13.30;99.90
25554;DHT22;13446;50.926;5.332;2023-03-31T17:12:58;13.20;99.90
25554;DHT22;13446;50.926;5.332;2023-03-31T17:15:24;13.20;99.90
25554;DHT22;13446;50.926;5.332;2023-03-31T17:17:50;13.20;99.90
25554;DHT22;13446;50.926;5.332;2023-03-31T17:20:16;13.30;99.90
25554;DHT22;13446;50.926;5.332;2023-03-31T17:22:42;13.40;99.90
25554;DHT22;13446;50.926;5.332;2023-03-31T17:25:08;13.40;99.90
25554;DHT22;13446;50.926;5.332;2023-03-31T17:27:34;13.30;99.90
25554;DHT22;13446;50.926;5.332;2023-03-31T17:29:59;13.30;99.90
25554;DHT22;13446;50.926;5.332;2023-03-31T17:32:25;13.20;99.90
25554;DHT22;13446;50.926;5.332;2023-03-31T17:34:51;13.20;99.90
25554;DHT22;13446;50.926;5.332;2023-03-31T17:37:17;13.20;99.90
25554;DHT22;13446;50.926;5.332;2023-03-31T17:39:43;13.20;99.90
25554;DHT22;13446;50.926;5.332;2023-03-31T17:42:09;13.20;99.90
25554;DHT22;13446;50.926;5.332;2023-03-31T17:44:36;13.10;99.90
25554;DHT22;13446;50.926;5.332;2023-03-31T17:47:01;13.00;99.90
25554;DHT22;13446;50.926;5.332;2023-03-31T17:49:27;12.90;99.90
25554;DHT22;13446;50.926;5.332;2023-03-31T17:51:52;12.90;99.90
25554;DHT22;13446;50.926;5.332;2023-03-31T17:54:18;12.90;99.90
25554;DHT22;13446;50.926;5.332;2023-03-31T17:56:44;13.00;99.90
25554;DHT22;13446;50.926;5.332;2023-03-31T17:59:10;12.90;99.90
25554;DHT22;13446;50.926;5.332;2023-03-31T18:01:35;12.80;99.90
25554;DHT22;13446;50.926;5.332;2023-03-31T18:04:02;12.70;99.90
25554;DHT22;13446;50.926;5.332;2023-03-31T18:06:27;12.70;99.90
25554;DHT22;13446;50.926;5.332;2023-03-31T18:08:54;12.80;99.90
25554;DHT22;13446;50.926;5.332;2023-03-31T18:11:20;12.60;99.90
25554;DHT22;13446;50.926;5.332;2023-03-31T18:13:46;12.60;99.90
25554;DHT22;13446;50.926;5.332;2023-03-31T18:16:12;12.60;99.90
25554;DHT22;13446;50.926;5.332;2023-03-31T18:18:37;12.70;99.90